Time;durP1;ratioP1;P1;durP2;ratioP2;P2;SDS_P1;SDS_P2;PMS_P1;PMS_P2;Temp;Humidity;BMP_temperature;BMP_pressure;BME280_temperature;BME280_humidity;BME280_pressure;Samples;Min_cycle;Max_cycle;Signal;HPM_P1;HPM_P2
2023/05/06 00:00:16;;;;;;;;;;;;;;;19.42;100.00;99031.16;5007428;28;20055;-40
2023/05/06 00:02:41;;;;;;;;;;;;;;;19.55;100.00;99032.00;5004060;28;20030;-40
2023/05/06 00:05:06;;;;;;;;;;;;;;;19.53;100.00;99015.59;5008884;28;20362;-40
2023/05/06 00:07:32;;;;;;;;;;;;;;;19.56;100.00;99017.16;5014666;28;20568;-40
2023/05/06 00:09:57;;;;;;;;;;;;;;;19.65;100.00;99022.56;5017382;28;19917;-40
2023/05/06 00:12:22;;;;;;;;;;;;;;;19.44;100.00;99022.28;5016542;28;19928;-40
2023/05/06 00:14:47;;;;;;;;;;;;;;;19.43;100.00;99022.38;5016155;28;19921;-40
2023/05/06 00:17:13;;;;;;;;;;;;;;;19.21;100.00;99025.63;5016695;28;19921;-40
2023/05/06 00:19:38;;;;;;;;;;;;;;;19.27;100.00;99032.19;5024040;28;19917;-40
2023/05/06 00:22:03;;;;;;;;;;;;;;;18.51;100.00;99031.88;5016567;28;19920;-39
2023/05/06 00:24:28;;;;;;;;;;;;;;;18.76;100.00;99036.34;5016524;28;20016;-40
2023/05/06 00:26:54;;;;;;;;;;;;;;;19.04;100.00;99062.44;5016270;28;20028;-40
2023/05/06 00:29:19;;;;;;;;;;;;;;;19.22;100.00;99046.38;5016527;28;20027;-39
2023/05/06 00:31:44;;;;;;;;;;;;;;;19.60;100.00;99032.50;5016458;28;20377;-40
2023/05/06 00:34:10;;;;;;;;;;;;;;;19.37;100.00;99028.03;5015395;28;20432;-40
2023/05/06 00:36:36;;;;;;;;;;;;;;;18.99;100.00;99028.81;5015165;28;20000;-40
2023/05/06 00:39:01;;;;;;;;;;;;;;;19.07;100.00;99036.97;5016499;28;20012;-40
2023/05/06 00:41:29;;;;;;;;;;;;;;;19.26;100.00;99036.59;5016565;28;19923;-40
2023/05/06 00:43:54;;;;;;;;;;;;;;;19.14;100.00;99027.81;5015777;28;20038;-40
2023/05/06 00:46:19;;;;;;;;;;;;;;;19.23;100.00;99031.56;5016367;28;19921;-40
2023/05/06 00:48:45;;;;;;;;;;;;;;;18.42;100.00;99044.69;5018142;28;19971;-40
2023/05/06 00:51:10;;;;;;;;;;;;;;;18.90;100.00;99045.91;5017956;28;19917;-39
2023/05/06 00:53:35;;;;;;;;;;;;;;;19.10;100.00;99031.53;5011948;28;19925;-39
2023/05/06 00:56:01;;;;;;;;;;;;;;;19.34;100.00;99028.22;5013837;28;20270;-39
2023/05/06 00:58:26;;;;;;;;;;;;;;;19.46;100.00;99016.13;5015493;28;20400;-39
2023/05/06 01:00:52;;;;;;;;;;;;;;;18.83;100.00;99002.06;5014784;28;19916;-40
2023/05/06 01:03:17;;;;;;;;;;;;;;;18.68;100.00;99036.03;5015143;28;19927;-40
2023/05/06 01:06:09;;;;;;;;;;;;;;;19.23;100.00;99026.34;5019620;28;19925;-40
2023/05/06 01:08:36;;;;;;;;;;;;;;;19.40;100.00;99012.97;5014439;28;19924;-40
2023/05/06 01:11:04;;;;;;;;;;;;;;;19.25;100.00;98998.38;5018395;28;19920;-39
2023/05/06 01:13:33;;;;;;;;;;;;;;;19.29;100.00;99002.41;5015073;28;20596;-39
2023/05/06 01:15:58;;;;;;;;;;;;;;;19.05;100.00;98993.66;5016186;28;19921;-39
2023/05/06 01:18:24;;;;;;;;;;;;;;;19.09;100.00;98993.34;5018681;28;19943;-40
2023/05/06 01:20:50;;;;;;;;;;;;;;;19.26;100.00;98991.38;5020380;28;19967;-39
2023/05/06 01:23:16;;;;;;;;;;;;;;;19.26;100.00;98993.97;5012799;28;19921;-39
2023/05/06 01:25:41;;;;;;;;;;;;;;;19.20;100.00;98990.84;5017998;28;20933;-39
2023/05/06 01:28:09;;;;;;;;;;;;;;;19.19;100.00;98988.34;5015738;28;19952;-40
2023/05/06 01:30:37;;;;;;;;;;;;;;;19.30;100.00;98979.78;5016428;28;19921;-40
2023/05/06 01:33:21;;;;;;;;;;;;;;;19.23;100.00;98980.19;5019274;28;20502;-40
2023/05/06 01:35:56;;;;;;;;;;;;;;;19.33;100.00;98980.38;5019529;28;19925;-39
2023/05/06 01:38:24;;;;;;;;;;;;;;;19.35;100.00;98978.50;5019641;28;19921;-40
2023/05/06 01:40:53;;;;;;;;;;;;;;;19.23;100.00;98972.34;5020167;28;19925;-39
2023/05/06 01:43:18;;;;;;;;;;;;;;;19.33;100.00;98979.56;5020522;28;20012;-39
2023/05/06 01:45:48;;;;;;;;;;;;;;;19.18;100.00;98981.41;5019502;28;19925;-39
2023/05/06 01:48:13;;;;;;;;;;;;;;;18.95;100.00;98980.38;5021076;28;19916;-39
2023/05/06 01:50:38;;;;;;;;;;;;;;;19.15;100.00;98989.47;5018856;28;19928;-39
2023/05/06 01:53:03;;;;;;;;;;;;;;;19.09;100.00;98982.91;5018370;28;19943;-39
2023/05/06 01:55:29;;;;;;;;;;;;;;;19.08;100.00;98976.00;5019517;28;19925;-40
2023/05/06 01:57:55;;;;;;;;;;;;;;;19.04;100.00;98992.78;5018806;28;20068;-40
2023/05/06 02:00:20;;;;;;;;;;;;;;;19.09;100.00;98988.13;5016234;28;19927;-40
2023/05/06 02:02:46;;;;;;;;;;;;;;;19.02;100.00;98986.84;5017552;28;19921;-39
2023/05/06 02:05:11;;;;;;;;;;;;;;;18.96;100.00;98982.06;5018774;28;19927;-39
2023/05/06 02:07:36;;;;;;;;;;;;;;;18.81;100.00;98978.69;5018325;28;20278;-39
2023/05/06 02:10:01;;;;;;;;;;;;;;;18.55;100.00;98983.81;5018668;28;19952;-39
2023/05/06 02:12:27;;;;;;;;;;;;;;;18.77;100.00;98991.09;5017844;28;19955;-39
2023/05/06 02:14:52;;;;;;;;;;;;;;;18.73;100.00;98997.41;5023324;28;20324;-40
2023/05/06 02:17:17;;;;;;;;;;;;;;;18.75;100.00;98994.72;5022946;28;20278;-40
2023/05/06 02:19:42;;;;;;;;;;;;;;;18.80;100.00;98982.22;5018416;28;20649;-40
2023/05/06 02:22:07;;;;;;;;;;;;;;;18.83;100.00;98981.19;5017608;28;20447;-39
2023/05/06 02:24:33;;;;;;;;;;;;;;;18.50;100.00;98985.06;5017183;28;20297;-39
2023/05/06 02:26:58;;;;;;;;;;;;;;;18.50;100.00;98985.06;5021784;28;20401;-40
2023/05/06 02:29:23;;;;;;;;;;;;;;;18.34;100.00;98991.25;5020435;28;20256;-39
2023/05/06 02:31:48;;;;;;;;;;;;;;;18.23;100.00;98998.91;5017616;28;20538;-39
2023/05/06 02:34:15;;;;;;;;;;;;;;;18.33;100.00;98991.34;5017687;28;20007;-39
2023/05/06 02:36:40;;;;;;;;;;;;;;;18.02;100.00;98990.69;5016789;28;19921;-39
2023/05/06 02:39:05;;;;;;;;;;;;;;;18.00;100.00;98997.75;5017853;28;19979;-40
2023/05/06 02:41:31;;;;;;;;;;;;;;;18.25;100.00;98997.06;5017455;28;19917;-39
2023/05/06 02:43:56;;;;;;;;;;;;;;;18.02;100.00;98987.22;5021645;28;19917;-39
2023/05/06 02:46:21;;;;;;;;;;;;;;;17.35;100.00;99001.66;5017384;28;19921;-39
2023/05/06 02:48:47;;;;;;;;;;;;;;;16.84;100.00;99016.81;5015283;28;19921;-40
2023/05/06 02:51:12;;;;;;;;;;;;;;;16.98;100.00;99026.41;5017269;28;20042;-39
2023/05/06 02:53:37;;;;;;;;;;;;;;;18.37;100.00;99000.66;4997461;28;20033;-39
2023/05/06 02:56:02;;;;;;;;;;;;;;;18.65;100.00;98952.72;5017574;28;19925;-39
2023/05/06 02:58:28;;;;;;;;;;;;;;;18.14;100.00;98965.63;5016935;28;19925;-39
2023/05/06 03:00:53;;;;;;;;;;;;;;;18.06;100.00;98960.03;5015279;28;19913;-39
2023/05/06 03:03:18;;;;;;;;;;;;;;;18.29;100.00;98962.03;5020875;28;20273;-39
2023/05/06 03:05:43;;;;;;;;;;;;;;;18.28;100.00;98957.75;5017255;28;20433;-39
2023/05/06 03:08:09;;;;;;;;;;;;;;;18.61;100.00;98940.84;5017013;28;20337;-39
2023/05/06 03:10:34;;;;;;;;;;;;;;;17.45;100.00;98949.88;5016911;28;19921;-39
2023/05/06 03:12:59;;;;;;;;;;;;;;;18.11;100.00;98958.84;5015763;28;19921;-39
2023/05/06 03:15:25;;;;;;;;;;;;;;;18.19;100.00;98950.50;5016888;28;19917;-39
2023/05/06 03:17:50;;;;;;;;;;;;;;;17.87;100.00;98953.38;5017164;28;19932;-39
2023/05/06 03:20:16;;;;;;;;;;;;;;;17.33;100.00;98974.03;5015031;28;20010;-39
2023/05/06 03:22:41;;;;;;;;;;;;;;;17.45;100.00;98991.53;5016469;28;20397;-39
2023/05/06 03:25:06;;;;;;;;;;;;;;;18.17;100.00;98965.41;5014525;28;19992;-39
2023/05/06 03:27:32;;;;;;;;;;;;;;;18.18;100.00;98947.09;5021355;28;19955;-39
2023/05/06 03:29:57;;;;;;;;;;;;;;;18.64;100.00;98919.78;5016451;28;19928;-39
2023/05/06 03:32:22;;;;;;;;;;;;;;;18.06;100.00;98927.00;5016827;28;20003;-39
2023/05/06 03:34:47;;;;;;;;;;;;;;;18.19;100.00;98940.91;5015584;28;20302;-39
2023/05/06 03:37:12;;;;;;;;;;;;;;;18.27;100.00;98937.84;5017118;28;20320;-40
2023/05/06 03:39:38;;;;;;;;;;;;;;;17.85;100.00;98952.66;5014933;28;20451;-40
2023/05/06 03:42:03;;;;;;;;;;;;;;;18.25;100.00;98950.13;5018769;28;20400;-40
2023/05/06 03:44:28;;;;;;;;;;;;;;;17.87;100.00;98950.78;5012324;28;20416;-40
2023/05/06 03:46:53;;;;;;;;;;;;;;;18.68;100.00;98936.03;5016537;28;20382;-40
2023/05/06 03:49:19;;;;;;;;;;;;;;;18.33;100.00;98921.78;5020458;28;19924;-39
2023/05/06 03:51:44;;;;;;;;;;;;;;;17.53;100.00;98958.06;5016960;28;19916;-39
2023/05/06 03:54:10;;;;;;;;;;;;;;;18.65;100.00;98950.13;5019763;28;19924;-40
2023/05/06 03:56:35;;;;;;;;;;;;;;;19.17;100.00;98922.34;5013555;28;19920;-39
2023/05/06 03:59:00;;;;;;;;;;;;;;;18.93;100.00;98928.28;5019816;28;19921;-40
2023/05/06 04:01:25;;;;;;;;;;;;;;;19.16;100.00;98915.44;5013758;28;19921;-39
2023/05/06 04:03:52;;;;;;;;;;;;;;;18.19;100.00;98927.06;5014921;28;19967;-40
2023/05/06 04:06:17;;;;;;;;;;;;;;;19.02;100.00;98924.19;5023241;28;19960;-40
2023/05/06 04:08:42;;;;;;;;;;;;;;;18.64;100.00;98938.03;5015842;28;19958;-40
2023/05/06 04:11:08;;;;;;;;;;;;;;;18.61;100.00;98951.28;5016464;28;19920;-40
2023/05/06 04:13:33;;;;;;;;;;;;;;;18.90;100.00;98941.53;5014907;28;19924;-40
2023/05/06 04:15:59;;;;;;;;;;;;;;;19.22;100.00;98926.28;5015720;28;20008;-40
2023/05/06 04:18:24;;;;;;;;;;;;;;;17.60;100.00;98957.69;5014501;28;19927;-40
2023/05/06 04:20:49;;;;;;;;;;;;;;;17.61;100.00;98972.38;5016543;28;19916;-40
2023/05/06 04:23:15;;;;;;;;;;;;;;;18.21;100.00;98972.09;5017091;28;19920;-40
2023/05/06 04:25:41;;;;;;;;;;;;;;;19.09;100.00;98958.56;5015799;28;20863;-40
2023/05/06 04:28:07;;;;;;;;;;;;;;;19.08;100.00;98942.06;5015622;28;19933;-40
2023/05/06 04:30:33;;;;;;;;;;;;;;;19.07;100.00;98944.78;5015652;28;20215;-40
2023/05/06 04:32:58;;;;;;;;;;;;;;;19.37;100.00;98936.63;5015277;28;20505;-40
2023/05/06 04:35:23;;;;;;;;;;;;;;;19.37;100.00;98927.00;5015332;28;19920;-39
2023/05/06 04:37:49;;;;;;;;;;;;;;;19.41;100.00;98930.25;5013884;28;20006;-40
2023/05/06 04:40:14;;;;;;;;;;;;;;;19.60;100.00;98914.94;5015261;28;20378;-40
2023/05/06 04:42:39;;;;;;;;;;;;;;;18.45;100.00;98953.19;5020424;28;19921;-40
2023/05/06 04:45:05;;;;;;;;;;;;;;;17.90;100.00;98987.09;5020612;28;19975;-40
2023/05/06 04:47:30;;;;;;;;;;;;;;;17.89;100.00;98993.22;5019345;28;19931;-40
2023/05/06 04:49:56;;;;;;;;;;;;;;;17.87;100.00;98999.47;5016101;28;20485;-40
2023/05/06 04:52:21;;;;;;;;;;;;;;;17.58;100.00;99006.41;5015711;28;20577;-40
2023/05/06 04:54:46;;;;;;;;;;;;;;;17.12;100.00;99031.66;5014875;28;19920;-39
2023/05/06 04:57:11;;;;;;;;;;;;;;;17.24;100.00;99030.13;5015060;28;19921;-40
2023/05/06 04:59:37;;;;;;;;;;;;;;;17.91;100.00;99035.66;5039166;28;19932;-40
2023/05/06 05:02:02;;;;;;;;;;;;;;;18.39;100.00;99024.84;5013372;28;19979;-40
2023/05/06 05:04:27;;;;;;;;;;;;;;;18.53;100.00;99021.34;5014968;28;19967;-40
2023/05/06 05:06:52;;;;;;;;;;;;;;;18.50;100.00;99006.75;5017631;28;19925;-40
2023/05/06 05:09:18;;;;;;;;;;;;;;;18.45;100.00;99008.81;5019136;28;19921;-40
2023/05/06 05:11:43;;;;;;;;;;;;;;;18.53;100.00;99024.78;5019327;28;19923;-40
2023/05/06 05:14:08;;;;;;;;;;;;;;;18.11;100.00;99028.34;5019044;28;20016;-40
2023/05/06 05:16:33;;;;;;;;;;;;;;;17.05;100.00;99038.13;5019687;28;20572;-40
2023/05/06 05:18:58;;;;;;;;;;;;;;;15.52;100.00;99099.22;5016991;28;19921;-40
2023/05/06 05:21:24;;;;;;;;;;;;;;;17.93;100.00;99122.38;5023122;28;19921;-39
2023/05/06 05:23:49;;;;;;;;;;;;;;;18.76;100.00;99074.66;5023164;28;19936;-40
2023/05/06 05:26:14;;;;;;;;;;;;;;;19.11;100.00;99054.13;5023108;28;19921;-40
2023/05/06 05:28:39;;;;;;;;;;;;;;;19.34;100.00;99043.88;5021819;28;19921;-40
2023/05/06 05:31:05;;;;;;;;;;;;;;;19.43;100.00;99031.06;5019124;28;19988;-40
2023/05/06 05:33:30;;;;;;;;;;;;;;;19.95;100.00;99026.63;5018683;28;20019;-39
2023/05/06 05:35:56;;;;;;;;;;;;;;;19.75;100.00;99016.75;5019454;28;19921;-39
2023/05/06 05:38:22;;;;;;;;;;;;;;;18.22;100.00;99049.38;5019093;28;20016;-40
2023/05/06 05:40:47;;;;;;;;;;;;;;;18.21;100.00;99078.16;5024356;28;20452;-39
2023/05/06 05:43:12;;;;;;;;;;;;;;;19.75;100.00;99074.22;5017768;28;20322;-39
2023/05/06 05:45:38;;;;;;;;;;;;;;;19.72;100.00;99059.59;5018865;28;20373;-39
2023/05/06 05:48:03;;;;;;;;;;;;;;;20.09;100.00;99041.34;5020237;28;21035;-40
2023/05/06 05:50:28;;;;;;;;;;;;;;;20.08;100.00;99037.06;5018043;28;19925;-39
2023/05/06 05:52:54;;;;;;;;;;;;;;;20.05;100.00;99030.28;5017868;28;19921;-39
2023/05/06 05:55:19;;;;;;;;;;;;;;;19.92;100.00;99018.19;5018044;28;19921;-40
2023/05/06 05:57:45;;;;;;;;;;;;;;;19.77;100.00;99031.38;5021909;28;19921;-40
2023/05/06 06:00:10;;;;;;;;;;;;;;;20.22;100.00;99046.56;5018100;28;19917;-39
2023/05/06 06:02:35;;;;;;;;;;;;;;;19.95;100.00;99050.16;5017034;28;20200;-40
2023/05/06 06:05:00;;;;;;;;;;;;;;;20.13;100.00;99037.56;5025708;28;20018;-39
2023/05/06 06:07:26;;;;;;;;;;;;;;;19.67;100.00;99055.63;5018506;28;19960;-40
2023/05/06 06:09:51;;;;;;;;;;;;;;;19.63;100.00;99061.03;5017756;28;20160;-40
2023/05/06 06:12:16;;;;;;;;;;;;;;;20.44;100.00;99054.53;5017615;28;19972;-40
2023/05/06 06:14:46;;;;;;;;;;;;;;;20.40;100.00;99034.78;5017143;28;20019;-40
2023/05/06 06:17:11;;;;;;;;;;;;;;;20.58;100.00;99027.41;5017145;28;19956;-40
2023/05/06 06:19:37;;;;;;;;;;;;;;;20.71;100.00;99037.81;5023901;28;20038;-40
2023/05/06 06:22:02;;;;;;;;;;;;;;;20.82;100.00;99023.94;5017438;28;19917;-40
2023/05/06 06:24:27;;;;;;;;;;;;;;;20.84;100.00;99012.38;5017669;28;19925;-39
2023/05/06 06:26:53;;;;;;;;;;;;;;;20.98;100.00;99010.53;5018300;28;19921;-39
2023/05/06 06:29:18;;;;;;;;;;;;;;;21.00;100.00;99016.50;5018125;28;19913;-40
2023/05/06 06:31:43;;;;;;;;;;;;;;;21.66;100.00;99004.47;5017764;28;19917;-40
2023/05/06 06:34:11;;;;;;;;;;;;;;;22.30;100.00;98997.72;5019759;28;20019;-40
2023/05/06 06:36:39;;;;;;;;;;;;;;;21.97;100.00;98980.25;5017680;28;19990;-40
2023/05/06 06:39:04;;;;;;;;;;;;;;;21.91;100.00;99007.78;5018162;28;19952;-40
2023/05/06 06:41:29;;;;;;;;;;;;;;;21.89;100.00;98993.97;5017719;28;20590;-40
2023/05/06 06:43:54;;;;;;;;;;;;;;;21.39;100.00;99022.28;5017829;28;20367;-40
2023/05/06 06:46:20;;;;;;;;;;;;;;;21.36;100.00;99007.63;5021316;28;19935;-40
2023/05/06 06:48:45;;;;;;;;;;;;;;;19.97;100.00;99044.84;5017666;28;19923;-40
2023/05/06 06:51:10;;;;;;;;;;;;;;;20.10;100.00;99063.13;5017427;28;19923;-40
2023/05/06 06:53:35;;;;;;;;;;;;;;;20.68;100.00;99056.34;5016094;28;20069;-40
2023/05/06 06:56:00;;;;;;;;;;;;;;;20.25;100.00;99051.56;5017473;28;19925;-40
2023/05/06 06:58:26;;;;;;;;;;;;;;;20.76;100.00;99048.78;5020328;28;20062;-40
2023/05/06 07:00:51;;;;;;;;;;;;;;;20.55;100.00;99058.16;5020857;28;19967;-40
2023/05/06 07:03:18;;;;;;;;;;;;;;;20.92;100.00;99060.75;5017636;28;19913;-40
2023/05/06 07:05:43;;;;;;;;;;;;;;;21.01;100.00;99060.91;5018063;28;20305;-40
2023/05/06 07:08:08;;;;;;;;;;;;;;;22.04;100.00;99036.50;5017297;28;19924;-40
2023/05/06 07:10:34;;;;;;;;;;;;;;;21.61;100.00;99017.09;5017690;28;20369;-40
2023/05/06 07:12:59;;;;;;;;;;;;;;;22.16;100.00;99008.47;5019044;28;20752;-40
2023/05/06 07:15:25;;;;;;;;;;;;;;;22.55;100.00;98996.56;5017559;28;19921;-40
2023/05/06 07:17:50;;;;;;;;;;;;;;;22.92;100.00;98977.78;5017144;28;19921;-40
2023/05/06 07:20:15;;;;;;;;;;;;;;;22.54;100.00;98984.41;5015695;28;19928;-40
2023/05/06 07:22:40;;;;;;;;;;;;;;;23.44;100.00;98986.53;5017323;28;19925;-43
2023/05/06 07:25:06;;;;;;;;;;;;;;;23.03;100.00;98979.53;5016252;28;20011;-40
2023/05/06 07:27:31;;;;;;;;;;;;;;;22.86;100.00;98979.13;5017537;28;20051;-40
2023/05/06 07:29:56;;;;;;;;;;;;;;;22.55;100.00;98994.78;5011686;28;20045;-40
2023/05/06 07:32:22;;;;;;;;;;;;;;;22.30;100.00;99003.81;5016173;28;19925;-40
2023/05/06 07:34:47;;;;;;;;;;;;;;;23.03;100.00;99000.56;5015564;28;20031;-40
2023/05/06 07:37:12;;;;;;;;;;;;;;;23.22;100.00;98994.56;5017781;28;20043;-40
2023/05/06 07:39:37;;;;;;;;;;;;;;;23.00;100.00;99003.44;5016516;28;20012;-40
2023/05/06 07:42:03;;;;;;;;;;;;;;;23.50;100.00;98979.94;5010877;28;20024;-40
2023/05/06 07:44:28;;;;;;;;;;;;;;;23.53;100.00;98987.53;5017684;28;20552;-40
2023/05/06 07:46:53;;;;;;;;;;;;;;;23.07;100.00;98973.06;5016231;28;19928;-40
2023/05/06 07:49:18;;;;;;;;;;;;;;;24.03;100.00;98957.84;5016673;28;19921;-40
2023/05/06 07:51:44;;;;;;;;;;;;;;;22.76;100.00;98962.47;5015688;28;19991;-40
2023/05/06 07:54:10;;;;;;;;;;;;;;;24.42;100.00;98937.63;4996985;28;19921;-40
2023/05/06 07:56:35;;;;;;;;;;;;;;;21.80;100.00;99010.41;5016235;28;19956;-40
2023/05/06 07:59:00;;;;;;;;;;;;;;;20.71;100.00;99024.75;5020504;28;19920;-40
2023/05/06 08:01:26;;;;;;;;;;;;;;;22.53;100.00;98994.09;5015007;28;19928;-40
2023/05/06 08:03:51;;;;;;;;;;;;;;;22.10;100.00;98950.31;5018134;28;19936;-40
2023/05/06 08:06:16;;;;;;;;;;;;;;;24.23;100.00;98937.66;5016786;28;19927;-41
2023/05/06 08:08:42;;;;;;;;;;;;;;;23.65;100.00;98925.19;5016883;28;20028;-40
2023/05/06 08:11:07;;;;;;;;;;;;;;;23.34;100.00;98918.16;5018225;28;19924;-41
2023/05/06 08:13:32;;;;;;;;;;;;;;;24.47;100.00;98909.13;5015670;28;20003;-41
2023/05/06 08:15:58;;;;;;;;;;;;;;;25.13;100.00;98904.81;5016717;28;20019;-41
2023/05/06 08:18:23;;;;;;;;;;;;;;;24.60;100.00;98914.09;5017333;28;19921;-41
2023/05/06 08:20:48;;;;;;;;;;;;;;;25.42;100.00;98910.84;5018722;28;19916;-41
2023/05/06 08:23:13;;;;;;;;;;;;;;;24.75;100.00;98910.06;5014578;28;19952;-41
2023/05/06 08:25:38;;;;;;;;;;;;;;;24.99;100.00;98922.75;5015747;28;19917;-41
2023/05/06 08:28:04;;;;;;;;;;;;;;;24.48;100.00;98921.31;5016415;28;19928;-41
2023/05/06 08:30:29;;;;;;;;;;;;;;;24.43;100.00;98936.69;5018094;28;20070;-42
2023/05/06 08:32:54;;;;;;;;;;;;;;;25.13;100.00;98925.91;5019207;28;19917;-41
2023/05/06 08:35:20;;;;;;;;;;;;;;;25.30;100.00;98914.66;5020575;28;20085;-42
2023/05/06 08:37:45;;;;;;;;;;;;;;;26.04;96.49;98904.94;5016857;28;19925;-41
2023/05/06 08:40:15;;;;;;;;;;;;;;;24.93;95.75;98915.44;5016478;28;19917;-41
2023/05/06 08:42:41;;;;;;;;;;;;;;;24.15;100.00;98968.13;5017777;28;19928;-42
2023/05/06 08:45:06;;;;;;;;;;;;;;;25.95;99.22;98908.47;5015663;28;19921;-42
2023/05/06 08:47:32;;;;;;;;;;;;;;;25.40;95.51;98904.88;5018237;28;19917;-42
2023/05/06 08:49:57;;;;;;;;;;;;;;;26.08;95.74;98907.13;5017174;28;20439;-42
2023/05/06 08:52:22;;;;;;;;;;;;;;;26.91;94.11;98892.78;5016125;28;20380;-42
2023/05/06 08:54:47;;;;;;;;;;;;;;;25.88;94.43;98911.72;5006023;28;20325;-42
2023/05/06 08:57:12;;;;;;;;;;;;;;;26.63;90.55;98890.28;5016675;28;20334;-42
2023/05/06 08:59:38;;;;;;;;;;;;;;;26.04;90.54;98894.38;5016575;28;19917;-42
2023/05/06 09:02:03;;;;;;;;;;;;;;;24.99;93.95;98927.19;5015319;28;19921;-42
2023/05/06 09:04:29;;;;;;;;;;;;;;;25.85;93.26;98914.63;5016096;28;21195;-42
2023/05/06 09:06:56;;;;;;;;;;;;;;;24.12;94.12;98936.78;5016295;28;19995;-43
2023/05/06 09:09:21;;;;;;;;;;;;;;;26.20;92.85;98899.00;5016781;28;19960;-42
2023/05/06 09:11:52;;;;;;;;;;;;;;;25.83;92.13;98898.09;5014687;28;19964;-42
2023/05/06 09:14:19;;;;;;;;;;;;;;;23.73;95.57;98936.69;5001088;28;20415;-42
2023/05/06 09:16:45;;;;;;;;;;;;;;;25.91;92.47;98893.94;5018369;28;19996;-42
2023/05/06 09:19:11;;;;;;;;;;;;;;;26.66;90.20;98897.06;5022347;28;19925;-42
2023/05/06 09:21:37;;;;;;;;;;;;;;;27.64;88.81;98880.88;5016385;28;19921;-43
2023/05/06 09:24:03;;;;;;;;;;;;;;;26.31;88.02;98895.28;5018547;28;19925;-43
2023/05/06 09:26:29;;;;;;;;;;;;;;;27.33;86.67;98866.41;5004787;28;19932;-43
2023/05/06 09:28:54;;;;;;;;;;;;;;;25.49;86.42;98895.25;4999245;28;20578;-42
2023/05/06 09:31:20;;;;;;;;;;;;;;;23.36;100.00;98991.63;5017320;28;19929;-42
2023/05/06 09:33:45;;;;;;;;;;;;;;;23.52;97.49;98941.22;5017524;28;20986;-43
2023/05/06 09:36:12;;;;;;;;;;;;;;;22.89;98.08;98942.09;5021248;28;20254;-42
2023/05/06 09:38:38;;;;;;;;;;;;;;;24.66;97.60;98912.72;5015113;28;20641;-42
2023/05/06 09:41:03;;;;;;;;;;;;;;;23.50;95.42;98919.47;5020544;28;19920;-43
2023/05/06 09:43:29;;;;;;;;;;;;;;;25.81;96.92;98900.06;5015999;28;20399;-42
2023/05/06 09:45:54;;;;;;;;;;;;;;;27.81;87.61;98842.91;5016078;28;19975;-43
2023/05/06 09:48:19;;;;;;;;;;;;;;;27.51;86.93;98870.78;5017045;28;20344;-43
2023/05/06 09:50:45;;;;;;;;;;;;;;;28.02;85.36;98854.84;5013382;28;20027;-43
2023/05/06 09:53:10;;;;;;;;;;;;;;;27.08;88.23;98880.50;5016866;28;20004;-44
2023/05/06 09:55:35;;;;;;;;;;;;;;;27.61;82.08;98838.88;5018927;28;19924;-44
2023/05/06 09:58:01;;;;;;;;;;;;;;;28.39;80.56;98822.56;5019463;28;19921;-43
2023/05/06 10:00:27;;;;;;;;;;;;;;;25.39;86.35;98879.50;5019192;28;20848;-43
2023/05/06 10:02:53;;;;;;;;;;;;;;;26.64;86.29;98857.63;5017884;28;20346;-43
2023/05/06 10:05:19;;;;;;;;;;;;;;;27.18;76.60;98801.06;5023092;28;20016;-43
2023/05/06 10:07:44;;;;;;;;;;;;;;;28.02;81.75;98828.38;5019196;28;19932;-43
2023/05/06 10:10:10;;;;;;;;;;;;;;;28.05;83.55;98843.94;5018643;28;19925;-43
2023/05/06 10:12:36;;;;;;;;;;;;;;;26.02;85.09;98869.97;5012746;28;20488;-43
2023/05/06 10:15:03;;;;;;;;;;;;;;;26.99;84.45;98841.78;5019743;28;20043;-43
2023/05/06 10:17:28;;;;;;;;;;;;;;;25.57;82.01;98831.25;5001582;28;19921;-44
2023/05/06 10:19:58;;;;;;;;;;;;;;;27.57;86.71;98853.44;5015479;28;19957;-44
2023/05/06 10:22:25;;;;;;;;;;;;;;;27.57;85.17;98846.31;5019919;28;20023;-44
2023/05/06 10:25:11;;;;;;;;;;;;;;;27.20;83.43;98839.59;5016859;28;19929;-45
2023/05/06 10:27:39;;;;;;;;;;;;;;;29.31;77.13;98792.97;5014934;28;19929;-44
2023/05/06 10:30:05;;;;;;;;;;;;;;;29.39;77.05;98812.34;5013662;28;19932;-44
2023/05/06 10:32:30;;;;;;;;;;;;;;;28.16;72.22;98791.47;5000371;28;19921;-45
2023/05/06 10:34:56;;;;;;;;;;;;;;;28.94;79.19;98819.16;5011825;28;19921;-45
2023/05/06 10:37:25;;;;;;;;;;;;;;;26.56;86.06;98867.28;5011368;28;20534;-44
2023/05/06 10:39:53;;;;;;;;;;;;;;;27.73;84.40;98806.69;5007178;28;20048;-44
2023/05/06 10:42:18;;;;;;;;;;;;;;;26.92;83.08;98818.63;5017150;28;19921;-43
2023/05/06 10:44:57;;;;;;;;;;;;;;;27.60;86.28;98830.13;5016353;28;20728;-44
2023/05/06 10:47:22;;;;;;;;;;;;;;;27.52;83.43;98804.47;5017568;28;20002;-44
2023/05/06 10:50:06;;;;;;;;;;;;;;;25.99;83.56;98831.50;5017912;28;19964;-44
2023/05/06 10:52:44;;;;;;;;;;;;;;;25.94;84.01;98815.31;5017260;28;19928;-43
2023/05/06 10:55:28;;;;;;;;;;;;;;;26.74;84.41;98822.34;5017439;28;19920;-43
2023/05/06 10:57:55;;;;;;;;;;;;;;;24.28;99.66;98915.19;5016831;28;19925;-44
2023/05/06 11:00:20;;;;;;;;;;;;;;;24.98;100.00;98880.75;5016560;28;19970;-44
2023/05/06 11:02:49;;;;;;;;;;;;;;;25.79;100.00;98877.47;5017749;28;19951;-44
2023/05/06 11:05:14;;;;;;;;;;;;;;;25.96;92.11;98828.38;5017724;28;19921;-44
2023/05/06 11:07:39;;;;;;;;;;;;;;;27.03;88.60;98814.06;5017730;28;19929;-44
2023/05/06 11:10:06;;;;;;;;;;;;;;;28.21;89.18;98828.03;5014193;28;19931;-44
2023/05/06 11:12:44;;;;;;;;;;;;;;;27.94;86.05;98811.50;5017844;28;19921;-43
2023/05/06 11:15:20;;;;;;;;;;;;;;;30.94;78.73;98766.03;5018659;28;19921;-43
2023/05/06 11:17:45;;;;;;;;;;;;;;;31.13;75.39;98760.13;5018185;28;19932;-46
2023/05/06 11:20:16;;;;;;;;;;;;;;;28.84;73.48;98772.66;5021717;28;19925;-44
2023/05/06 11:22:42;;;;;;;;;;;;;;;28.59;79.11;98804.50;5022759;28;19925;-45
2023/05/06 11:25:07;;;;;;;;;;;;;;;26.81;86.34;98837.41;5017385;28;19917;-44
2023/05/06 11:27:32;;;;;;;;;;;;;;;29.34;81.28;98766.94;5018568;28;20289;-44
2023/05/06 11:29:57;;;;;;;;;;;;;;;26.82;82.79;98815.28;5014602;28;19996;-44
2023/05/06 11:32:24;;;;;;;;;;;;;;;28.27;79.89;98778.91;5017270;28;20024;-44
2023/05/06 11:34:49;;;;;;;;;;;;;;;27.21;82.23;98803.41;5017238;28;19927;-44
2023/05/06 11:37:23;;;;;;;;;;;;;;;27.93;79.32;98783.38;5018382;28;20328;-44
2023/05/06 11:39:48;;;;;;;;;;;;;;;26.35;77.57;98797.16;5017802;28;19975;-44
2023/05/06 11:42:14;;;;;;;;;;;;;;;29.06;78.30;98763.94;5017388;28;19917;-44
2023/05/06 11:44:39;;;;;;;;;;;;;;;27.68;72.86;98760.53;5017154;28;20027;-44
2023/05/06 11:47:08;;;;;;;;;;;;;;;27.81;74.82;98776.75;5018211;28;19925;-44
2023/05/06 11:49:37;;;;;;;;;;;;;;;27.48;77.99;98794.38;5018243;28;20024;-44
2023/05/06 11:52:03;;;;;;;;;;;;;;;28.34;77.00;98769.28;5016938;28;20032;-45
2023/05/06 11:54:28;;;;;;;;;;;;;;;29.60;68.03;98734.78;5016567;28;20997;-43
2023/05/06 11:56:55;;;;;;;;;;;;;;;29.48;72.78;98778.63;5017134;28;19927;-44
2023/05/06 11:59:27;;;;;;;;;;;;;;;26.74;78.89;98836.38;5018507;28;20471;-44
2023/05/06 12:01:52;;;;;;;;;;;;;;;29.06;75.16;98763.94;5015227;28;19928;-44
2023/05/06 12:04:17;;;;;;;;;;;;;;;28.94;71.55;98757.34;5013070;28;19921;-44
2023/05/06 12:06:42;;;;;;;;;;;;;;;29.82;76.21;98796.00;5015324;28;19928;-43
2023/05/06 12:09:09;;;;;;;;;;;;;;;27.47;81.41;98835.88;5018811;28;19968;-44
2023/05/06 12:11:34;;;;;;;;;;;;;;;27.23;77.89;98791.69;5015658;28;19916;-45
2023/05/06 12:14:01;;;;;;;;;;;;;;;27.61;77.48;98793.91;5016769;28;19921;-44
2023/05/06 12:16:26;;;;;;;;;;;;;;;29.01;72.98;98755.66;5015926;28;19921;-44
2023/05/06 12:18:52;;;;;;;;;;;;;;;29.54;75.72;98785.91;5016738;28;19960;-45
2023/05/06 12:21:21;;;;;;;;;;;;;;;31.00;76.73;98779.41;5017475;28;19917;-44
2023/05/06 12:23:54;;;;;;;;;;;;;;;31.15;76.90;98803.31;5017475;28;20463;-44
2023/05/06 12:26:20;;;;;;;;;;;;;;;30.99;71.79;98766.28;5016653;28;20410;-45
2023/05/06 12:28:45;;;;;;;;;;;;;;;31.17;77.19;98795.97;5022186;28;19967;-44
2023/05/06 12:31:17;;;;;;;;;;;;;;;29.87;77.11;98801.59;5017200;28;19953;-45
2023/05/06 12:33:42;;;;;;;;;;;;;;;30.14;70.79;98767.53;5015437;28;20778;-45